Time;durP1;ratioP1;P1;durP2;ratioP2;P2;SDS_P1;SDS_P2;PMS_P1;PMS_P2;Temp;Humidity;BMP_temperature;BMP_pressure;BME280_temperature;BME280_humidity;BME280_pressure;Samples;Min_cycle;Max_cycle;Signal;HPM_P1;HPM_P2
2022/10/29 00:02:23;;;;;;;10.35;4.88;;;;;;;15.02;100.00;100784.25;5011093;28;20097;-65
2022/10/29 00:04:49;;;;;;;10.27;5.05;;;;;;;14.99;100.00;100770.09;5028263;28;20045;-65
2022/10/29 00:07:14;;;;;;;11.35;5.15;;;;;;;14.97;100.00;100788.91;5031586;28;20037;-64
2022/10/29 00:09:39;;;;;;;11.13;4.57;;;;;;;14.92;100.00;100776.59;5031476;28;20061;-65
2022/10/29 00:12:05;;;;;;;10.25;4.93;;;;;;;14.79;100.00;100770.84;5031619;28;20022;-65
2022/10/29 00:14:31;;;;;;;13.02;4.97;;;;;;;14.82;100.00;100780.56;5031354;28;20648;-64
2022/10/29 00:16:56;;;;;;;9.45;4.70;;;;;;;14.79;100.00;100778.00;5030788;28;20035;-65
2022/10/29 00:19:22;;;;;;;9.95;4.97;;;;;;;14.74;100.00;100775.50;5030571;28;20025;-64
2022/10/29 00:21:49;;;;;;;12.93;5.40;;;;;;;14.70;100.00;100770.28;5030609;28;20106;-65
2022/10/29 00:24:15;;;;;;;11.00;4.95;;;;;;;14.68;100.00;100762.31;5030565;28;20100;-65
2022/10/29 00:26:40;;;;;;;10.68;5.13;;;;;;;14.68;100.00;100762.31;5030629;28;20032;-64
2022/10/29 00:29:06;;;;;;;9.30;6.07;;;;;;;14.65;100.00;100762.44;5030593;28;20021;-65
2022/10/29 00:31:31;;;;;;;10.52;5.50;;;;;;;14.63;100.00;100763.44;5030627;28;20056;-65
2022/10/29 00:33:57;;;;;;;10.15;4.75;;;;;;;14.62;100.00;100767.03;5031142;28;20041;-65
2022/10/29 00:36:28;;;;;;;12.27;5.03;;;;;;;14.57;100.00;100767.22;5030763;28;20037;-65
2022/10/29 00:38:53;;;;;;;10.73;5.60;;;;;;;14.57;100.00;100767.22;5031359;28;20461;-65
2022/10/29 00:41:25;;;;;;;9.02;4.68;;;;;;;14.55;100.00;100771.75;5030827;28;20032;-65
2022/10/29 00:44:12;;;;;;;10.32;5.28;;;;;;;14.50;100.00;100765.69;5030727;28;20029;-65
2022/10/29 00:47:06;;;;;;;16.15;5.75;;;;;;;14.44;100.00;100776.63;5030862;28;20026;-64
2022/10/29 00:49:33;;;;;;;13.05;6.95;;;;;;;14.41;100.00;100776.72;5027005;28;20041;-65
2022/10/29 00:52:01;;;;;;;11.88;5.47;;;;;;;14.40;100.00;100775.84;5030629;28;20037;-64
2022/10/29 00:54:29;;;;;;;11.85;5.07;;;;;;;14.36;100.00;100768.00;5029843;28;20474;-65
2022/10/29 00:57:00;;;;;;;9.13;5.43;;;;;;;14.33;100.00;100768.97;5029967;28;20461;-64
2022/10/29 00:59:26;;;;;;;12.57;6.03;;;;;;;14.31;100.00;100769.97;5030239;28;20037;-65
2022/10/29 01:01:52;;;;;;;13.68;5.32;;;;;;;14.32;100.00;100769.03;5030581;28;20033;-63
2022/10/29 01:04:19;;;;;;;12.88;5.80;;;;;;;14.30;100.00;100769.06;5017387;28;20026;-62
2022/10/29 01:06:45;;;;;;;12.10;5.43;;;;;;;14.31;100.00;100775.31;5011041;28;20048;-62
2022/10/29 01:09:11;;;;;;;10.00;4.90;;;;;;;14.29;100.00;100772.69;5030554;28;20017;-62
2022/10/29 01:12:08;;;;;;;13.63;5.65;;;;;;;14.29;100.00;100769.13;5027710;28;20079;-61
2022/10/29 01:14:36;;;;;;;12.85;5.03;;;;;;;14.33;100.00;100765.44;5028421;28;20091;-62
2022/10/29 01:17:07;;;;;;;11.60;4.47;;;;;;;14.38;100.00;100764.31;5030747;28;20029;-61
2022/10/29 01:20:03;;;;;;;11.63;4.85;;;;;;;14.46;100.00;100764.06;5030608;28;20033;-61
2022/10/29 01:22:36;;;;;;;10.05;5.22;;;;;;;14.54;100.00;100764.66;5030564;28;20495;-61
2022/10/29 01:25:36;;;;;;;8.13;4.43;;;;;;;14.59;100.00;100757.31;5030696;28;20025;-62
2022/10/29 01:28:29;;;;;;;14.80;4.75;;;;;;;14.65;100.00;100765.13;4969533;28;20034;-62
2022/10/29 01:31:04;;;;;;;9.73;4.38;;;;;;;14.65;100.00;100751.72;5029064;28;20124;-61
2022/10/29 01:33:59;;;;;;;13.55;4.65;;;;;;;14.62;100.00;100751.84;5030722;28;20457;-62
2022/10/29 01:36:59;;;;;;;11.27;4.47;;;;;;;14.57;100.00;100758.28;5016655;28;20048;-62
2022/10/29 01:39:51;;;;;;;12.07;4.43;;;;;;;14.50;100.00;100755.84;5002806;28;20037;-62
2022/10/29 01:42:36;;;;;;;16.95;4.80;;;;;;;14.46;100.00;100758.72;5029435;28;20125;-62
2022/10/29 01:45:22;;;;;;;13.07;4.50;;;;;;;14.42;100.00;100751.69;5029870;28;20511;-62
2022/10/29 01:47:59;;;;;;;7.57;4.43;;;;;;;14.37;100.00;100751.00;5029739;28;20040;-62
2022/10/29 01:50:26;;;;;;;10.98;4.78;;;;;;;14.36;100.00;100749.25;5014904;28;20034;-61
2022/10/29 01:52:53;;;;;;;8.90;4.25;;;;;;;14.34;100.00;100745.75;5011812;28;20061;-62
2022/10/29 01:55:21;;;;;;;7.32;3.78;;;;;;;14.30;100.00;100752.13;5020120;28;20029;-61
2022/10/29 01:57:47;;;;;;;13.77;5.03;;;;;;;14.26;100.00;100739.81;5033075;28;20571;-61
2022/10/29 02:00:17;;;;;;;9.73;3.88;;;;;;;14.22;100.00;100731.00;5033759;28;20033;-62
2022/10/29 02:02:52;;;;;;;11.00;4.60;;;;;;;14.18;100.00;100737.34;5033951;28;20532;-61
2022/10/29 02:05:29;;;;;;;9.05;4.25;;;;;;;14.17;100.00;100724.03;5024299;28;20135;-62
2022/10/29 02:08:19;;;;;;;9.52;3.83;;;;;;;14.13;100.00;100723.31;5023279;28;20029;-61
2022/10/29 02:10:55;;;;;;;9.65;4.32;;;;;;;14.08;100.00;100722.59;5033657;28;20370;-61
2022/10/29 02:13:28;;;;;;;8.95;4.68;;;;;;;14.04;100.00;100720.94;5033883;28;20104;-61
2022/10/29 02:15:56;;;;;;;8.95;4.30;;;;;;;14.04;100.00;100723.63;5033572;28;20025;-62
2022/10/29 02:18:22;;;;;;;9.70;3.42;;;;;;;14.02;100.00;100720.13;5033652;28;20037;-62
2022/10/29 02:20:47;;;;;;;7.57;4.28;;;;;;;14.02;100.00;100720.13;5033468;28;20037;-61
2022/10/29 02:23:14;;;;;;;9.65;4.03;;;;;;;14.02;100.00;100719.25;5033683;28;20037;-61
2022/10/29 02:25:39;;;;;;;8.18;4.80;;;;;;;14.00;100.00;100719.28;5033443;28;20111;-62
2022/10/29 02:28:05;;;;;;;9.10;4.45;;;;;;;13.96;100.00;100719.47;5033371;28;20037;-62
2022/10/29 02:30:30;;;;;;;8.40;4.10;;;;;;;13.93;100.00;100714.22;5033433;28;20461;-61
2022/10/29 02:32:56;;;;;;;7.30;4.50;;;;;;;13.90;100.00;100714.34;5033341;28;20519;-61
2022/10/29 02:35:21;;;;;;;11.75;4.43;;;;;;;13.93;100.00;100698.19;5033427;28;20515;-61
2022/10/29 02:37:47;;;;;;;8.82;4.28;;;;;;;13.99;100.00;100700.63;5032677;28;20060;-61
2022/10/29 02:40:13;;;;;;;10.40;4.65;;;;;;;14.00;100.00;100697.88;5033453;28;20029;-61
2022/10/29 02:42:38;;;;;;;11.57;4.82;;;;;;;14.00;100.00;100695.22;5033064;28;20029;-61
2022/10/29 02:45:04;;;;;;;7.53;3.50;;;;;;;13.98;100.00;100698.88;5033054;28;20684;-61
2022/10/29 02:47:29;;;;;;;11.02;5.47;;;;;;;13.94;100.00;100694.56;5032969;28;20029;-61
2022/10/29 02:49:55;;;;;;;13.35;5.35;;;;;;;13.92;100.00;100688.41;5033193;28;20785;-61
2022/10/29 02:52:20;;;;;;;9.88;4.32;;;;;;;13.89;100.00;100691.19;5032762;28;20037;-62
2022/10/29 02:54:46;;;;;;;9.40;4.55;;;;;;;13.88;100.00;100686.75;5033034;28;20037;-61
2022/10/29 02:57:11;;;;;;;8.07;4.28;;;;;;;13.90;100.00;100693.81;5032731;28;20054;-61
2022/10/29 02:59:37;;;;;;;10.15;5.47;;;;;;;13.90;100.00;100687.59;5033095;28;20037;-61
2022/10/29 03:02:02;;;;;;;12.32;4.38;;;;;;;13.90;100.00;100691.16;5032716;28;20032;-61
2022/10/29 03:04:28;;;;;;;11.27;4.45;;;;;;;13.89;100.00;100692.06;5032617;28;20026;-61
2022/10/29 03:06:53;;;;;;;6.60;4.32;;;;;;;13.84;100.00;100688.66;5031772;28;20033;-62
2022/10/29 03:09:18;;;;;;;8.88;4.13;;;;;;;13.80;100.00;100686.16;5032674;28;20366;-61
2022/10/29 03:11:44;;;;;;;13.35;3.70;;;;;;;13.68;100.00;100675.88;5019525;28;20097;-61
2022/10/29 03:14:09;;;;;;;9.50;4.40;;;;;;;13.61;100.00;100674.34;5013037;28;20033;-61
2022/10/29 03:16:35;;;;;;;9.23;4.07;;;;;;;13.58;100.00;100677.13;5021343;28;20083;-60
2022/10/29 03:19:00;;;;;;;10.52;6.05;;;;;;;13.57;100.00;100673.59;5032666;28;20029;-61
2022/10/29 03:21:26;;;;;;;9.95;4.50;;;;;;;13.57;100.00;100667.38;5032164;28;20021;-62
2022/10/29 03:23:52;;;;;;;10.48;5.32;;;;;;;13.54;100.00;100668.34;5032349;28;20404;-61
2022/10/29 03:26:17;;;;;;;18.55;4.82;;;;;;;13.54;100.00;100670.16;5032389;28;20492;-61
2022/10/29 03:28:42;;;;;;;8.80;4.47;;;;;;;13.53;100.00;100671.06;5032399;28;20033;-61
2022/10/29 03:31:08;;;;;;;11.60;3.78;;;;;;;13.52;100.00;100667.53;5032319;28;20072;-61
2022/10/29 03:33:34;;;;;;;7.35;3.92;;;;;;;13.52;100.00;100663.97;5032471;28;20025;-61
2022/10/29 03:36:02;;;;;;;8.38;3.92;;;;;;;13.48;100.00;100662.31;5032205;28;20028;-62
2022/10/29 03:38:28;;;;;;;8.93;3.45;;;;;;;13.42;100.00;100668.78;5032306;28;20079;-61
2022/10/29 03:40:53;;;;;;;5.43;3.03;;;;;;;13.36;100.00;100676.13;5028797;28;20033;-61
2022/10/29 03:43:18;;;;;;;7.00;3.45;;;;;;;13.26;100.00;100666.66;5015283;28;20516;-61
2022/10/29 03:45:49;;;;;;;8.65;3.50;;;;;;;13.18;100.00;100670.44;5012424;28;20392;-61
2022/10/29 03:48:15;;;;;;;7.75;4.00;;;;;;;13.18;100.00;100665.09;5023127;28;20044;-61
2022/10/29 03:50:40;;;;;;;8.57;3.92;;;;;;;13.16;100.00;100671.44;5032168;28;20029;-61
2022/10/29 03:53:07;;;;;;;9.93;3.88;;;;;;;13.10;100.00;100680.50;5031603;28;20036;-61
2022/10/29 03:55:32;;;;;;;8.50;4.25;;;;;;;13.09;100.00;100680.56;5031094;28;20025;-62
2022/10/29 03:57:58;;;;;;;9.05;5.28;;;;;;;13.11;100.00;100689.41;5030399;28;20102;-62
2022/10/29 04:00:23;;;;;;;11.57;4.05;;;;;;;13.10;100.00;100693.88;5030969;28;20045;-61
2022/10/29 04:02:48;;;;;;;7.95;3.42;;;;;;;13.09;100.00;100681.44;5030604;28;20090;-61
2022/10/29 04:05:14;;;;;;;8.68;4.65;;;;;;;13.07;100.00;100677.06;5023723;28;20129;-61
2022/10/29 04:07:40;;;;;;;10.05;4.13;;;;;;;13.07;100.00;100683.28;5018011;28;20057;-62
2022/10/29 04:10:06;;;;;;;9.85;4.25;;;;;;;13.05;100.00;100679.78;5031672;28;20033;-61
2022/10/29 04:12:31;;;;;;;9.15;4.05;;;;;;;13.06;100.00;100675.34;5031513;28;20488;-61
2022/10/29 04:14:57;;;;;;;8.43;4.50;;;;;;;13.01;100.00;100678.13;5031598;28;20021;-62
2022/10/29 04:17:22;;;;;;;9.98;4.72;;;;;;;13.02;100.00;100682.56;5030433;28;20484;-60
2022/10/29 04:19:48;;;;;;;12.23;4.45;;;;;;;13.00;100.00;100678.13;5030648;28;20041;-61
2022/10/29 04:22:13;;;;;;;7.82;4.45;;;;;;;12.99;100.00;100679.97;5030561;28;20525;-61
2022/10/29 04:24:38;;;;;;;9.60;4.32;;;;;;;12.99;100.00;100690.66;5030782;28;20024;-62
2022/10/29 04:27:04;;;;;;;11.75;4.45;;;;;;;12.97;100.00;100697.81;5030786;28;20120;-61
2022/10/29 04:29:29;;;;;;;7.30;3.72;;;;;;;12.96;100.00;100701.41;5030693;28;20022;-62
2022/10/29 04:31:55;;;;;;;14.57;4.78;;;;;;;12.95;100.00;100698.78;5030740;28;20432;-61
2022/10/29 04:34:20;;;;;;;16.30;4.68;;;;;;;12.92;100.00;100705.09;5031097;28;20048;-62
2022/10/29 04:36:45;;;;;;;7.03;4.20;;;;;;;12.93;100.00;100700.66;5031172;28;20025;-61
2022/10/29 04:39:11;;;;;;;8.63;4.15;;;;;;;12.92;100.00;100701.53;5030572;28;20022;-61
2022/10/29 04:41:36;;;;;;;8.30;3.60;;;;;;;12.90;100.00;100717.63;5031118;28;20747;-61
2022/10/29 04:44:02;;;;;;;26.35;5.47;;;;;;;12.86;100.00;100705.31;5031167;28;20025;-62
2022/10/29 04:46:27;;;;;;;6.63;3.67;;;;;;;12.85;100.00;100698.19;5031238;28;20067;-61
2022/10/29 04:48:53;;;;;;;7.63;3.85;;;;;;;12.83;100.00;100702.69;5030894;28;20041;-62
2022/10/29 04:51:23;;;;;;;16.27;4.57;;;;;;;12.84;100.00;100704.47;5030886;28;20029;-62
2022/10/29 04:53:49;;;;;;;9.27;3.72;;;;;;;12.84;100.00;100701.78;5030987;28;20764;-62
2022/10/29 04:56:15;;;;;;;10.38;4.63;;;;;;;12.84;100.00;100699.13;5031010;28;20059;-62
2022/10/29 04:58:40;;;;;;;7.35;3.95;;;;;;;12.92;100.00;100694.41;5030577;28;20458;-62
2022/10/29 05:01:06;;;;;;;10.82;4.68;;;;;;;13.02;100.00;100697.69;5013170;28;20032;-61
2022/10/29 05:03:32;;;;;;;9.75;5.03;;;;;;;13.06;100.00;100676.19;5030612;28;20051;-62
2022/10/29 05:06:01;;;;;;;11.32;4.45;;;;;;;13.11;100.00;100687.59;5031139;28;20032;-61
2022/10/29 05:08:26;;;;;;;8.38;4.88;;;;;;;13.18;100.00;100680.25;5030573;28;20030;-61
2022/10/29 05:10:52;;;;;;;10.85;5.05;;;;;;;13.20;100.00;100689.09;5030811;28;20175;-61
2022/10/29 05:13:17;;;;;;;9.48;5.13;;;;;;;13.15;100.00;100683.91;5027688;28;20092;-62
2022/10/29 05:15:49;;;;;;;9.85;4.22;;;;;;;13.12;100.00;100686.69;5029704;28;20081;-62
2022/10/29 05:18:14;;;;;;;9.43;4.85;;;;;;;13.04;100.00;100682.50;5030490;28;20392;-61
2022/10/29 05:20:40;;;;;;;7.57;4.78;;;;;;;12.97;100.00;100687.13;5030802;28;20037;-61
2022/10/29 05:23:07;;;;;;;10.77;4.10;;;;;;;12.91;100.00;100682.00;5030719;28;20022;-61
2022/10/29 05:25:35;;;;;;;8.70;4.80;;;;;;;12.84;100.00;100683.13;5030748;28;20423;-61
2022/10/29 05:28:05;;;;;;;16.70;5.75;;;;;;;12.79;100.00;100681.50;5030665;28;20029;-61
2022/10/29 05:30:31;;;;;;;10.95;5.43;;;;;;;12.75;100.00;100677.19;5032577;28;20027;-62
2022/10/29 05:32:57;;;;;;;12.25;5.07;;;;;;;12.75;100.00;100688.72;5034196;28;20029;-61
2022/10/29 05:35:22;;;;;;;11.70;5.25;;;;;;;12.74;100.00;100688.78;5021233;28;20132;-62
2022/10/29 05:37:55;;;;;;;10.45;5.30;;;;;;;12.68;100.00;100688.97;5024254;28;20052;-62
2022/10/29 05:40:22;;;;;;;13.00;5.53;;;;;;;12.66;100.00;100697.03;5033012;28;20052;-62
2022/10/29 05:42:48;;;;;;;12.98;5.40;;;;;;;12.63;100.00;100691.78;5033028;28;20513;-61
2022/10/29 05:45:13;;;;;;;10.75;5.65;;;;;;;12.61;100.00;100690.94;5033111;28;20108;-62
2022/10/29 05:47:39;;;;;;;10.20;4.88;;;;;;;12.61;100.00;100687.41;5033374;28;20022;-62
2022/10/29 05:50:05;;;;;;;7.53;4.22;;;;;;;12.61;100.00;100690.94;5033366;28;20784;-62
2022/10/29 05:52:30;;;;;;;9.15;4.30;;;;;;;12.60;100.00;100688.31;5034712;28;20167;-62
2022/10/29 05:54:56;;;;;;;12.60;5.07;;;;;;;12.59;100.00;100691.91;5034556;28;20106;-62
2022/10/29 05:57:21;;;;;;;11.65;4.95;;;;;;;12.62;100.00;100698.03;5033824;28;20069;-61
2022/10/29 05:59:47;;;;;;;7.80;4.45;;;;;;;12.65;100.00;100697.94;5024670;28;20450;-62
2022/10/29 06:02:12;;;;;;;11.05;4.82;;;;;;;12.50;100.00;100687.72;5014139;28;20022;-61
2022/10/29 06:04:37;;;;;;;11.43;4.97;;;;;;;12.56;100.00;100695.53;5029789;28;20469;-62
2022/10/29 06:07:03;;;;;;;13.10;5.57;;;;;;;12.55;100.00;100692.94;5033630;28;20029;-61
2022/10/29 06:09:28;;;;;;;13.77;8.13;;;;;;;12.53;100.00;100687.63;5032359;28;20189;-62
2022/10/29 06:11:54;;;;;;;11.77;6.72;;;;;;;12.50;100.00;100693.06;5033594;28;20039;-62
2022/10/29 06:14:19;;;;;;;13.18;5.90;;;;;;;12.48;100.00;100696.69;5033350;28;20025;-62
2022/10/29 06:16:45;;;;;;;9.65;6.10;;;;;;;12.48;100.00;100692.22;5031088;28;20505;-62
2022/10/29 06:19:10;;;;;;;13.35;8.23;;;;;;;12.50;100.00;100701.06;5032052;28;20033;-62
2022/10/29 06:21:36;;;;;;;13.15;6.38;;;;;;;12.54;100.00;100701.84;5033365;28;20034;-61
2022/10/29 06:24:02;;;;;;;15.50;7.07;;;;;;;12.56;100.00;100695.53;5033336;28;20037;-61
2022/10/29 06:26:27;;;;;;;15.80;6.63;;;;;;;12.60;100.00;100694.50;5033926;28;20100;-61
2022/10/29 06:28:52;;;;;;;11.88;6.75;;;;;;;12.63;100.00;100694.44;5014661;28;20032;-61
2022/10/29 06:31:18;;;;;;;10.65;6.50;;;;;;;12.68;100.00;100699.63;5031489;28;20060;-62
2022/10/29 06:33:43;;;;;;;13.00;6.82;;;;;;;12.76;100.00;100705.63;5033817;28;20112;-61
2022/10/29 06:36:09;;;;;;;18.10;7.93;;;;;;;12.83;100.00;100702.69;5020853;28;20088;-62
2022/10/29 06:38:34;;;;;;;13.73;6.60;;;;;;;12.92;100.00;100705.09;5031066;28;20051;-61
2022/10/29 06:40:59;;;;;;;13.43;6.03;;;;;;;12.99;100.00;100705.78;5032859;28;20491;-62
2022/10/29 06:43:25;;;;;;;17.77;5.97;;;;;;;13.02;100.00;100701.25;5032575;28;20029;-62
2022/10/29 06:45:50;;;;;;;13.80;6.03;;;;;;;13.11;100.00;100711.63;5032273;28;20064;-61
2022/10/29 06:48:16;;;;;;;10.15;5.28;;;;;;;13.18;100.00;100707.84;5032572;28;20025;-61
2022/10/29 06:50:42;;;;;;;10.38;4.90;;;;;;;13.26;100.00;100720.09;5032002;28;20025;-62
2022/10/29 06:53:11;;;;;;;9.32;4.75;;;;;;;13.33;100.00;100722.50;5032625;28;20029;-61
2022/10/29 06:55:37;;;;;;;10.10;5.65;;;;;;;13.45;100.00;100715.88;5031789;28;20033;-62
2022/10/29 06:58:11;;;;;;;8.30;3.70;;;;;;;13.59;100.00;100717.16;5027287;28;20046;-62
2022/10/29 07:00:37;;;;;;;10.77;3.97;;;;;;;13.72;100.00;100725.66;5031694;28;20551;-61
2022/10/29 07:03:03;;;;;;;8.20;4.10;;;;;;;14.03;100.00;100715.66;5029927;28;20056;-61
2022/10/29 07:05:30;;;;;;;9.85;4.15;;;;;;;14.45;100.00;100719.47;5030747;28;20465;-62
2022/10/29 07:07:56;;;;;;;8.70;5.05;;;;;;;15.09;100.00;100707.16;5031926;28;20036;-62
2022/10/29 07:10:23;;;;;;;8.00;4.45;;;;;;;15.80;100.00;100714.00;5029451;28;20107;-62
2022/10/29 07:12:48;;;;;;;9.32;4.53;;;;;;;16.23;100.00;100704.94;5031156;28;20369;-62
2022/10/29 07:15:14;;;;;;;9.88;4.38;;;;;;;16.40;100.00;100714.94;5028411;28;20103;-62
2022/10/29 07:17:39;;;;;;;8.38;4.07;;;;;;;16.37;100.00;100704.31;5029063;28;20108;-62
2022/10/29 07:20:06;;;;;;;11.15;5.15;;;;;;;16.28;100.00;100708.28;5032194;28;20357;-62
2022/10/29 07:22:32;;;;;;;10.57;4.97;;;;;;;16.45;100.00;100699.47;5029368;28;20116;-62
2022/10/29 07:24:57;;;;;;;13.38;4.53;;;;;;;17.55;100.00;100708.50;5028460;28;20388;-62
2022/10/29 07:27:22;;;;;;;14.32;5.00;;;;;;;18.70;99.43;100713.22;5028442;28;20427;-62
2022/10/29 07:29:48;;;;;;;7.75;3.58;;;;;;;19.85;90.27;100710.16;5025752;28;20025;-62
2022/10/29 07:32:13;;;;;;;6.60;3.40;;;;;;;20.78;81.61;100707.94;5027841;28;20032;-62
2022/10/29 07:34:39;;;;;;;6.63;3.30;;;;;;;21.65;74.07;100719.34;5026699;28;20040;-62
2022/10/29 07:37:04;;;;;;;8.90;3.05;;;;;;;22.36;68.56;100720.75;5025875;28;20025;-62
2022/10/29 07:39:29;;;;;;;7.53;3.22;;;;;;;22.87;64.80;100738.81;5027478;28;20497;-62
2022/10/29 07:41:55;;;;;;;5.10;2.70;;;;;;;22.96;61.53;100734.56;5028314;28;20037;-62
2022/10/29 07:44:20;;;;;;;10.10;3.08;;;;;;;23.68;59.27;100725.59;5024866;28;20090;-62
2022/10/29 07:46:46;;;;;;;4.63;3.25;;;;;;;24.37;55.53;100720.22;5026985;28;20566;-62
2022/10/29 07:49:11;;;;;;;7.28;3.53;;;;;;;25.08;54.34;100714.50;5027314;28;20022;-62
2022/10/29 07:51:36;;;;;;;10.57;3.45;;;;;;;25.66;52.38;100723.22;5026373;28;20559;-62
2022/10/29 07:54:02;;;;;;;7.63;3.45;;;;;;;26.12;50.71;100724.81;5025081;28;20252;-62
2022/10/29 07:56:27;;;;;;;12.73;3.88;;;;;;;26.67;48.79;100719.06;5029299;28;20021;-62
2022/10/29 07:58:53;;;;;;;7.45;3.45;;;;;;;27.16;47.07;100722.75;5028306;28;20061;-62
2022/10/29 08:01:18;;;;;;;10.98;3.10;;;;;;;27.57;46.21;100723.59;5027503;28;20072;-62
2022/10/29 08:03:44;;;;;;;6.22;3.13;;;;;;;28.12;45.32;100721.09;5028679;28;20030;-62
2022/10/29 08:06:09;;;;;;;9.07;3.20;;;;;;;28.44;44.13;100727.13;5026771;28;20030;-62
2022/10/29 08:08:34;;;;;;;6.20;3.20;;;;;;;28.75;43.79;100730.56;5027214;28;20032;-62
2022/10/29 08:11:01;;;;;;;8.85;4.28;;;;;;;29.17;42.87;100725.53;5028024;28;20029;-62
2022/10/29 08:13:27;;;;;;;12.32;3.50;;;;;;;29.53;42.62;100724.63;5025493;28;20112;-62
2022/10/29 08:15:53;;;;;;;4.55;2.67;;;;;;;29.78;42.87;100720.31;5025444;28;20063;-62
2022/10/29 08:18:18;;;;;;;8.02;3.10;;;;;;;29.89;41.46;100720.06;5028041;28;20049;-62
2022/10/29 08:20:44;;;;;;;8.82;3.00;;;;;;;29.92;41.77;100728.00;5025414;28;20033;-62
2022/10/29 08:23:10;;;;;;;5.35;2.90;;;;;;;29.74;42.21;100725.22;5025081;28;20033;-61
2022/10/29 08:25:40;;;;;;;8.30;3.63;;;;;;;29.46;42.77;100715.28;5027299;28;20035;-62
2022/10/29 08:28:07;;;;;;;9.55;3.50;;;;;;;29.50;42.74;100712.09;5024242;28;20079;-62
2022/10/29 08:30:33;;;;;;;8.05;2.85;;;;;;;29.84;42.84;100714.19;5024824;28;20029;-62
2022/10/29 08:32:59;;;;;;;9.68;3.17;;;;;;;30.04;42.44;100722.13;5026891;28;20026;-62
2022/10/29 08:35:25;;;;;;;9.07;3.15;;;;;;;29.78;42.50;100725.78;5024397;28;20354;-62
2022/10/29 08:37:50;;;;;;;7.47;3.20;;;;;;;29.47;43.27;100722.50;5025244;28;20095;-62
2022/10/29 08:40:42;;;;;;;9.63;3.35;;;;;;;28.83;44.48;100694.22;5026986;28;20029;-62
2022/10/29 08:43:29;;;;;;;8.50;2.95;;;;;;;29.16;45.25;100723.81;5025545;28;20037;-62
2022/10/29 08:45:55;;;;;;;7.95;3.65;;;;;;;29.55;43.99;100725.34;5027774;28;20029;-62
2022/10/29 08:48:33;;;;;;;11.77;4.10;;;;;;;29.56;43.91;100721.56;5025728;28;20040;-63
2022/10/29 08:51:14;;;;;;;7.03;3.22;;;;;;;29.02;45.76;100721.53;5024229;28;20390;-62
2022/10/29 08:53:51;;;;;;;6.30;3.38;;;;;;;28.88;46.30;100713.81;5024921;28;20079;-63
2022/10/29 08:56:35;;;;;;;6.90;3.25;;;;;;;29.01;45.60;100720.66;5022951;28;20105;-63
2022/10/29 08:59:11;;;;;;;12.35;5.32;;;;;;;28.76;44.97;100718.59;5023074;28;20049;-63
2022/10/29 09:01:36;;;;;;;9.18;3.10;;;;;;;29.15;44.08;100711.13;5024307;28;20120;-63
2022/10/29 09:04:11;;;;;;;7.00;2.60;;;;;;;29.66;42.46;100716.91;5025731;28;20029;-62
2022/10/29 09:06:50;;;;;;;12.60;3.53;;;;;;;30.26;41.36;100704.34;5032483;28;20027;-62
2022/10/29 09:09:37;;;;;;;7.03;3.40;;;;;;;30.31;41.21;100710.22;5032150;28;20025;-63
2022/10/29 09:12:08;;;;;;;9.80;3.95;;;;;;;30.42;39.85;100710.84;5032703;28;20022;-63
2022/10/29 09:14:48;;;;;;;9.10;2.90;;;;;;;30.34;40.66;100697.03;5033226;28;20034;-63
2022/10/29 09:17:26;;;;;;;9.68;3.28;;;;;;;30.16;41.25;100703.53;5033088;28;20025;-63
2022/10/29 09:19:59;;;;;;;9.40;3.28;;;;;;;30.29;41.86;100707.63;5016287;28;20079;-63
2022/10/29 09:22:36;;;;;;;9.25;2.90;;;;;;;30.22;41.00;100703.78;5030868;28;20029;-63
2022/10/29 09:25:28;;;;;;;9.07;4.18;;;;;;;29.95;42.43;100706.59;5031431;28;20043;-63
2022/10/29 09:28:24;;;;;;;9.65;2.85;;;;;;;29.59;42.19;100707.53;5030956;28;20028;-63
2022/10/29 09:31:08;;;;;;;10.30;3.70;;;;;;;29.90;42.17;100719.91;5030449;28;20032;-63
2022/10/29 09:33:33;;;;;;;8.27;3.10;;;;;;;29.78;41.01;100715.69;5031735;28;20024;-63
2022/10/29 09:36:00;;;;;;;9.82;3.38;;;;;;;29.82;41.57;100722.56;5031202;28;20025;-62
2022/10/29 09:38:33;;;;;;;13.02;3.95;;;;;;;30.13;41.42;100721.16;5031995;28;20117;-63
2022/10/29 09:41:01;;;;;;;8.88;3.10;;;;;;;30.14;41.45;100706.44;5032457;28;20049;-63
2022/10/29 09:43:38;;;;;;;9.73;4.07;;;;;;;29.52;40.84;100709.19;5031139;28;20099;-64
2022/10/29 09:46:26;;;;;;;7.30;2.80;;;;;;;29.31;43.17;100711.31;5032607;28;20521;-64
2022/10/29 09:49:08;;;;;;;7.70;4.72;;;;;;;29.25;42.08;100706.44;5025608;28;20077;-63
2022/10/29 09:51:42;;;;;;;8.70;3.47;;;;;;;29.39;40.47;100708.69;5030406;28;20033;-64
2022/10/29 09:54:08;;;;;;;8.30;3.47;;;;;;;29.46;42.29;100716.16;5030826;28;20025;-63
2022/10/29 09:56:34;;;;;;;9.30;5.13;;;;;;;29.47;42.27;100706.06;5004985;28;20025;-64
2022/10/29 09:59:15;;;;;;;10.32;3.42;;;;;;;29.38;42.11;100709.69;5028909;28;20056;-64
2022/10/29 10:01:41;;;;;;;11.10;3.40;;;;;;;29.31;41.16;100706.72;5030058;28;20037;-64
2022/10/29 10:04:20;;;;;;;7.95;3.33;;;;;;;29.54;41.84;100704.41;5029533;28;20029;-64
2022/10/29 10:07:07;;;;;;;9.13;3.03;;;;;;;29.84;41.50;100706.81;5030010;28;20035;-63
2022/10/29 10:09:56;;;;;;;6.93;3.28;;;;;;;29.87;40.42;100695.53;5027226;28;20091;-64
2022/10/29 10:12:25;;;;;;;8.73;2.88;;;;;;;30.04;40.20;100691.94;5028492;28;20021;-63
2022/10/29 10:15:25;;;;;;;9.32;3.80;;;;;;;29.27;42.63;100693.47;5027517;28;20124;-64
2022/10/29 10:18:06;;;;;;;6.65;2.85;;;;;;;29.42;43.07;100691.94;5019337;28;20040;-63
2022/10/29 10:20:37;;;;;;;8.93;3.03;;;;;;;29.31;42.69;100689.38;5026300;28;20528;-64
2022/10/29 10:23:29;;;;;;;8.35;3.05;;;;;;;29.38;42.53;100691.38;5025337;28;20116;-63
2022/10/29 10:25:57;;;;;;;10.82;3.65;;;;;;;29.67;42.53;100687.63;5026334;28;20079;-63
2022/10/29 10:28:28;;;;;;;11.55;3.13;;;;;;;29.50;41.95;100689.28;5025827;28;20207;-63
2022/10/29 10:31:02;;;;;;;12.07;5.28;;;;;;;29.22;42.27;100685.72;5027007;28;20107;-62
2022/10/29 10:33:29;;;;;;;8.10;2.95;;;;;;;29.59;43.74;100688.34;5026916;28;20032;-63
2022/10/29 10:35:54;;;;;;;8.88;3.35;;;;;;;29.82;42.13;100678.69;5024672;28;20740;-63
2022/10/29 10:38:20;;;;;;;9.30;3.03;;;;;;;29.78;42.36;100669.06;5024405;28;20021;-63
2022/10/29 10:41:04;;;;;;;8.32;3.05;;;;;;;30.12;41.54;100669.19;5026788;28;20591;-63
2022/10/29 10:43:29;;;;;;;9.02;3.20;;;;;;;29.93;41.11;100664.75;5024652;28;20369;-62
2022/10/29 10:46:02;;;;;;;25.42;3.42;;;;;;;29.83;42.30;100658.47;5024867;28;20025;-63
2022/10/29 10:48:28;;;;;;;8.85;2.72;;;;;;;29.89;42.67;100656.97;5025460;28;20032;-62
2022/10/29 10:51:15;;;;;;;6.82;2.67;;;;;;;29.67;40.21;100637.22;5027634;28;20021;-63
2022/10/29 10:53:40;;;;;;;7.03;2.85;;;;;;;29.08;41.69;100638.75;5027235;28;20035;-63
2022/10/29 10:56:16;;;;;;;9.85;3.50;;;;;;;29.32;42.71;100633.56;5024658;28;20029;-63
2022/10/29 10:58:46;;;;;;;7.25;3.17;;;;;;;29.63;43.51;100629.44;5025326;28;20104;-64
2022/10/29 11:01:27;;;;;;;8.38;3.20;;;;;;;29.77;41.46;100631.66;5026258;28;20727;-63
2022/10/29 11:04:09;;;;;;;8.48;2.80;;;;;;;29.80;42.03;100625.88;5024716;28;20080;-62
2022/10/29 11:06:39;;;;;;;40.80;5.47;;;;;;;29.64;43.41;100622.94;5025208;28;20025;-63
2022/10/29 11:09:07;;;;;;;5.68;2.55;;;;;;;29.79;43.47;100618.66;5023761;28;20751;-63
2022/10/29 11:11:36;;;;;;;7.78;2.70;;;;;;;30.20;41.49;100608.88;5025485;28;20045;-63
2022/10/29 11:14:24;;;;;;;9.23;3.63;;;;;;;30.51;41.36;100610.16;5025062;28;20060;-62
2022/10/29 11:16:54;;;;;;;8.15;3.47;;;;;;;30.53;40.78;100614.44;5017106;28;20851;-63
2022/10/29 11:19:40;;;;;;;9.80;3.40;;;;;;;30.27;43.35;100588.88;5024691;28;20041;-63
2022/10/29 11:22:17;;;;;;;11.85;3.80;;;;;;;30.41;41.47;100593.75;5023473;28;20393;-62
2022/10/29 11:25:20;;;;;;;7.18;3.40;;;;;;;30.05;41.75;100592.09;5024699;28;20158;-62
2022/10/29 11:27:57;;;;;;;7.65;2.80;;;;;;;30.11;42.02;100580.50;5022390;28;20116;-62
2022/10/29 11:30:23;;;;;;;6.97;2.60;;;;;;;30.44;41.05;100596.22;5024210;28;20029;-62